Round Mountain, California
Current Conditions -  °F | °C
As of 3:53 AM on Saturday 20 Dec 2014 (Local Time) from KRDD Reporting Station
Light Rain Light Rain  
Wind Chill: 51°   Ceiling: 600
Heat Index: 51°   Visibility: 8mi
Dew Point: 50°   Wind: 8mph
Humidity: 96%   Direction: 200°SSW
Pressure: 30.1"   Gusts: NA
Location:  40.79°N, 121.94°W
Report Text: KRDD 201153Z AUTO 20007KT 8SM -RA OVC006 11/10 A3010 RMK AO2 CIG 005V010 SLP193 P0005 60008 70044 T01060100 10106 20106 56000
Loading
Personal Weather Stations






























Interactive Weather Map New forecast layout! Learn more

10-Day Weather Forecast

Advertisements
Track Severe Weather on mobile